Ciudad Guayana, Venezuela
Current Conditions -  °F | °C
As of 12:00 PM on Friday 28 Nov 2014 (Local Time) from TTPP Reporting Station
Few Clouds Few Clouds  
Wind Chill: 90°   Ceiling: Unl
Heat Index: 95°   Visibility: 6mi
Dew Point: 70°   Wind: 12mph
Humidity: 52%   Direction: 160°SSE
Pressure: 29.88"   Gusts: NA
Location:  8.37°N, 62.62°W
Report Text: TTPP 281600Z 16010KT 9999 FEW018 32/21 Q1012 NOSIG
Loading
Personal Weather Stations






























Interactive Weather Map New forecast layout! Learn more

10-Day Weather Forecast

Advertisements
Track Severe Weather on mobile